Time;durP1;ratioP1;P1;durP2;ratioP2;P2;SDS_P1;SDS_P2;PMS_P1;PMS_P2;Temp;Humidity;BMP_temperature;BMP_pressure;BME280_temperature;BME280_humidity;BME280_pressure;Samples;Min_cycle;Max_cycle;Signal;HPM_P1;HPM_P2
2023/11/17 00:04:36;;;;;;;26.20;17.10;;;;;;;9.69;73.31;98289.61;234451;214;139106;-61
2023/11/17 00:09:40;;;;;;;24.60;16.80;;;;;;;9.67;73.31;98285.84;234380;215;138128;-60
2023/11/17 00:14:43;;;;;;;25.30;16.20;;;;;;;9.65;73.40;98281.24;234400;215;147621;-60
2023/11/17 00:19:46;;;;;;;21.10;15.10;;;;;;;9.62;73.51;98279.65;234314;215;139648;-60
2023/11/17 00:24:50;;;;;;;20.50;14.50;;;;;;;9.59;73.39;98274.03;234487;214;136897;-59
2023/11/17 00:29:53;;;;;;;22.50;14.80;;;;;;;9.59;73.58;98269.23;234594;215;147759;-60
2023/11/17 00:34:56;;;;;;;23.00;14.40;;;;;;;9.62;73.67;98261.95;234371;215;139700;-59
2023/11/17 00:40:00;;;;;;;22.20;15.40;;;;;;;9.63;73.61;98254.83;234358;215;137989;-60
2023/11/17 00:45:06;;;;;;;21.90;14.30;;;;;;;9.62;73.68;98249.77;234463;215;146408;-60
2023/11/17 00:50:10;;;;;;;;;;;;;;;9.58;73.55;98246.67;234179;215;139132;-60
2023/11/17 00:55:15;;;;;;;21.90;14.00;;;;;;;9.53;73.64;98243.29;234431;215;132295;-60
2023/11/17 01:00:19;;;;;;;20.00;13.50;;;;;;;9.49;73.74;98250.52;234348;215;149152;-60
2023/11/17 01:05:22;;;;;;;22.70;13.50;;;;;;;9.44;73.94;98240.74;234342;215;139141;-59
2023/11/17 01:10:26;;;;;;;21.10;13.10;;;;;;;9.39;74.20;98237.52;234424;215;137595;-60
2023/11/17 01:15:34;;;;;;;18.40;12.30;;;;;;;9.40;74.28;98234.13;234324;215;147710;-60
2023/11/17 01:20:40;;;;;;;17.90;12.20;;;;;;;9.45;74.16;98231.98;234203;215;268864;-60
2023/11/17 01:25:45;;;;;;;19.90;12.80;;;;;;;9.47;74.06;98232.70;234312;213;138040;-60
2023/11/17 01:30:48;;;;;;;23.00;13.60;;;;;;;9.55;74.06;98221.71;234332;215;147432;-60
2023/11/17 01:35:51;;;;;;;22.30;14.40;;;;;;;9.60;73.85;98211.61;234348;215;139752;-60
2023/11/17 01:40:56;;;;;;;23.10;14.60;;;;;;;9.63;73.66;98204.17;234348;215;138259;-60
2023/11/17 01:46:00;;;;;;;22.60;14.60;;;;;;;9.58;73.78;98191.98;234466;215;148793;-60
2023/11/17 01:51:05;;;;;;;20.50;13.40;;;;;;;9.56;73.81;98181.29;234329;215;140778;-60
2023/11/17 01:56:08;;;;;;;22.00;13.40;;;;;;;9.53;73.83;98171.94;234274;216;139124;-60
2023/11/17 02:01:13;;;;;;;21.50;13.10;;;;;;;9.54;74.05;98165.71;234387;215;149010;-61
2023/11/17 02:06:37;;;;;;;19.60;13.30;;;;;;;9.55;73.82;98163.27;234325;215;138774;-60
2023/11/17 02:11:50;;;;;;;19.70;13.50;;;;;;;9.56;73.90;98163.02;234473;215;138176;-60
2023/11/17 02:16:54;;;;;;;24.50;14.30;;;;;;;9.51;74.03;98152.42;234305;215;148918;-60
2023/11/17 02:22:02;;;;;;;23.20;14.30;;;;;;;9.47;74.22;98148.60;234324;215;139737;-60
2023/11/17 02:27:59;;;;;;;17.50;12.30;;;;;;;9.43;74.40;98148.73;234308;213;137042;-61
2023/11/17 02:33:07;;;;;;;16.10;10.20;;;;;;;9.39;74.52;98143.05;234093;216;148766;-60
2023/11/17 02:38:12;;;;;;;15.50;9.80;;;;;;;9.38;74.67;98144.50;234269;213;139163;-60
2023/11/17 02:43:16;;;;;;;16.50;9.80;;;;;;;9.42;74.71;98142.64;234304;215;137317;-60
2023/11/17 02:48:22;;;;;;;14.00;9.60;;;;;;;9.47;74.55;98134.99;234215;215;147956;-60
2023/11/17 02:53:35;;;;;;;15.50;9.60;;;;;;;9.47;74.32;98127.73;234525;215;138892;-60
2023/11/17 02:58:38;;;;;;;12.20;9.50;;;;;;;9.45;74.45;98121.52;234324;214;137810;-60
2023/11/17 03:03:43;;;;;;;17.10;9.70;;;;;;;9.46;74.65;98114.88;234263;215;148036;-61
2023/11/17 03:08:49;;;;;;;13.00;9.00;;;;;;;9.47;74.51;98105.95;234249;214;138847;-60
2023/11/17 03:13:52;;;;;;;11.90;8.10;;;;;;;9.45;74.45;98103.63;234272;215;136848;-60
2023/11/17 03:18:55;;;;;;;11.90;8.30;;;;;;;9.44;74.54;98101.77;234305;212;147709;-59
2023/11/17 03:23:59;;;;;;;13.20;8.20;;;;;;;9.46;74.48;98102.47;234396;215;138967;-60
2023/11/17 03:29:04;;;;;;;11.80;8.10;;;;;;;9.49;74.44;98101.21;234250;213;137634;-60
2023/11/17 03:34:09;;;;;;;;;;;;;;;9.47;74.38;98100.26;234416;215;147531;-60
2023/11/17 03:39:13;;;;;;;14.20;7.50;;;;;;;9.45;74.58;98104.33;234339;215;139183;-60
2023/11/17 03:44:16;;;;;;;10.80;7.00;;;;;;;9.44;74.65;98100.67;234348;213;137371;-60
2023/11/17 03:49:20;;;;;;;9.90;6.70;;;;;;;9.42;74.67;98102.06;234368;215;147635;-59
2023/11/17 03:54:24;;;;;;;9.40;6.60;;;;;;;9.38;74.88;98096.71;234262;213;139109;-59
2023/11/17 03:59:29;;;;;;;9.30;6.10;;;;;;;9.39;74.88;98097.52;234496;215;137537;-59
2023/11/17 04:04:34;;;;;;;;;;;;;;;9.43;74.73;98089.42;234260;215;148639;-60
2023/11/17 04:09:37;;;;;;;9.50;6.30;;;;;;;9.46;74.76;98082.48;234317;215;139569;-61
2023/11/17 04:14:42;;;;;;;11.00;6.50;;;;;;;9.47;74.85;98079.20;234249;216;138060;-60
2023/11/17 04:19:46;;;;;;;9.10;6.50;;;;;;;9.46;74.80;98080.73;234197;215;147718;-59
2023/11/17 04:24:49;;;;;;;9.90;6.00;;;;;;;9.44;74.88;98083.14;234278;215;141608;-60
2023/11/17 04:29:53;;;;;;;8.10;6.00;;;;;;;9.41;74.94;98088.52;234379;213;137548;-60
2023/11/17 04:34:56;;;;;;;8.20;5.60;;;;;;;9.38;75.14;98084.68;234267;213;147418;-60
2023/11/17 04:40:01;;;;;;;8.30;5.10;;;;;;;9.39;75.19;98082.45;234323;216;139851;-59
2023/11/17 04:45:09;;;;;;;9.10;5.70;;;;;;;9.43;75.23;98076.66;234407;215;140719;-59
2023/11/17 04:50:12;;;;;;;7.40;5.70;;;;;;;9.48;75.15;98069.43;234267;215;147545;-59
2023/11/17 04:55:16;;;;;;;8.90;5.60;;;;;;;9.51;75.11;98068.52;234281;216;138788;-59
2023/11/17 05:00:20;;;;;;;8.60;5.10;;;;;;;9.49;74.99;98064.20;234371;215;137767;-60
2023/11/17 05:05:23;;;;;;;8.50;5.40;;;;;;;9.47;74.98;98063.13;234409;215;148913;-60
2023/11/17 05:10:26;;;;;;;8.20;5.40;;;;;;;9.42;75.05;98064.91;234220;212;140197;-59
2023/11/17 05:15:30;;;;;;;8.00;5.10;;;;;;;9.38;75.17;98067.71;234219;215;137018;-60
2023/11/17 05:20:37;;;;;;;5.50;4.20;;;;;;;9.39;75.29;98067.08;234285;213;147676;-60
2023/11/17 05:25:40;;;;;;;6.40;5.20;;;;;;;9.41;75.33;98068.86;234228;215;139179;-60
2023/11/17 05:30:43;;;;;;;7.20;4.60;;;;;;;9.47;75.30;98066.82;234393;215;137361;-60
2023/11/17 05:35:47;;;;;;;7.60;5.50;;;;;;;9.51;75.24;98068.12;234416;215;148749;-61
2023/11/17 05:40:51;;;;;;;10.10;5.80;;;;;;;9.53;75.26;98071.05;234278;213;139411;-60
2023/11/17 05:45:59;;;;;;;7.40;5.20;;;;;;;9.50;75.21;98077.26;234358;215;140388;-61
2023/11/17 05:51:09;;;;;;;131.20;106.90;;;;;;;9.51;75.99;98079.30;234390;215;148376;-60
2023/11/17 05:56:12;;;;;;;62.80;55.30;;;;;;;9.59;75.68;98084.39;234299;213;139684;-60
2023/11/17 06:01:16;;;;;;;7.40;5.50;;;;;;;9.62;75.64;98089.84;234489;213;137796;-60
2023/11/17 06:06:19;;;;;;;196.40;154.30;;;;;;;9.60;75.36;98088.55;234327;213;147775;-60
2023/11/17 06:11:25;;;;;;;32.90;25.50;;;;;;;9.60;75.70;98095.79;234423;213;140676;-61
2023/11/17 06:16:29;;;;;;;8.60;5.60;;;;;;;9.69;75.72;98092.00;234336;215;137791;-60
2023/11/17 06:21:32;;;;;;;10.50;5.70;;;;;;;9.71;75.24;98097.48;234235;213;147755;-59
2023/11/17 06:26:35;;;;;;;10.20;5.50;;;;;;;9.70;74.98;98098.40;234233;213;139517;-59
2023/11/17 06:31:43;;;;;;;7.00;5.90;;;;;;;9.65;74.84;98100.20;234242;213;136841;-60
2023/11/17 06:36:46;;;;;;;6.70;5.00;;;;;;;9.64;75.09;98104.58;234358;208;149130;-60
2023/11/17 06:41:51;;;;;;;7.90;5.70;;;;;;;9.62;75.28;98103.10;234450;215;139188;-59
2023/11/17 06:46:55;;;;;;;336.50;252.70;;;;;;;9.65;75.48;98106.27;234227;215;137567;-59
2023/11/17 06:52:01;;;;;;;12.90;9.30;;;;;;;9.75;75.64;98107.30;234332;215;147900;-60
2023/11/17 06:57:06;;;;;;;8.80;6.40;;;;;;;9.82;75.09;98115.09;234330;215;139121;-56
2023/11/17 07:02:10;;;;;;;9.20;6.30;;;;;;;9.80;75.04;98121.45;234357;215;137840;-57
2023/11/17 07:07:14;;;;;;;7.70;6.40;;;;;;;9.79;75.00;98123.63;234327;215;147391;-58
2023/11/17 07:12:17;;;;;;;8.70;6.90;;;;;;;9.76;75.29;98131.16;234307;215;139411;-58
2023/11/17 07:17:21;;;;;;;7.60;6.20;;;;;;;9.72;75.23;98130.91;234411;215;138035;-58
2023/11/17 07:22:24;;;;;;;7.90;6.40;;;;;;;9.68;75.38;98138.95;234261;213;147941;-58
2023/11/17 07:27:28;;;;;;;7.70;6.70;;;;;;;9.71;75.63;98141.77;234209;215;139514;-59
2023/11/17 07:32:31;;;;;;;150.30;107.90;;;;;;;9.76;75.55;98148.48;234218;215;136481;-62
2023/11/17 07:37:35;;;;;;;10.20;7.80;;;;;;;9.82;75.74;98151.40;234231;215;147854;-58
2023/11/17 07:42:39;;;;;;;8.30;6.70;;;;;;;9.82;75.56;98156.36;234301;215;139114;-59
2023/11/17 07:47:43;;;;;;;9.00;7.20;;;;;;;9.81;75.59;98165.30;234379;215;136755;-58
2023/11/17 07:52:46;;;;;;;7.40;6.60;;;;;;;9.81;75.70;98168.46;234319;215;148641;-58
2023/11/17 07:57:50;;;;;;;7.30;6.20;;;;;;;9.82;75.70;98169.83;234286;215;138793;-58
2023/11/17 08:02:56;;;;;;;9.40;6.40;;;;;;;9.86;75.57;98169.58;234226;215;137582;-59
2023/11/17 08:08:00;;;;;;;8.10;7.00;;;;;;;9.88;75.47;98169.59;234342;215;147754;-60
2023/11/17 08:13:04;;;;;;;7.50;6.30;;;;;;;9.88;75.20;98179.86;234204;215;139034;-61
2023/11/17 08:18:08;;;;;;;24.30;18.40;;;;;;;9.92;75.50;98187.15;234531;215;137242;-60
2023/11/17 08:23:13;;;;;;;5.60;5.00;;;;;;;9.98;75.22;98193.64;234364;212;148094;-59
2023/11/17 08:28:16;;;;;;;4.90;4.40;;;;;;;9.95;74.99;98197.77;234266;215;139084;-61
2023/11/17 08:33:20;;;;;;;5.90;4.30;;;;;;;9.92;74.93;98205.09;234236;213;137888;-61
2023/11/17 08:38:25;;;;;;;8.00;4.40;;;;;;;9.94;74.93;98210.74;234235;216;148018;-61
2023/11/17 08:43:28;;;;;;;9.80;4.80;;;;;;;10.00;74.98;98220.46;234273;215;139924;-61
2023/11/17 08:48:35;;;;;;;117.90;93.80;;;;;;;10.07;74.89;98224.70;234267;212;136766;-62
2023/11/17 08:53:38;;;;;;;8.20;5.70;;;;;;;10.16;75.11;98230.77;234431;214;148296;-61
2023/11/17 08:58:42;;;;;;;6.10;4.80;;;;;;;10.21;74.53;98235.95;234239;216;139985;-60
2023/11/17 09:03:47;;;;;;;4.10;3.60;;;;;;;10.17;74.46;98238.31;234083;213;138912;-70
2023/11/17 09:08:50;;;;;;;627.00;484.20;;;;;;;10.14;74.46;98239.83;234078;215;148268;-66
2023/11/17 09:13:53;;;;;;;11.10;8.40;;;;;;;10.26;75.58;98241.77;234157;212;141025;-65
2023/11/17 09:18:59;;;;;;;5.10;2.70;;;;;;;10.32;73.86;98248.63;234320;208;137553;-60
2023/11/17 09:24:03;;;;;;;5.50;2.30;;;;;;;10.31;73.18;98251.55;234378;212;147291;-57
2023/11/17 09:29:07;;;;;;;3.20;2.40;;;;;;;10.35;72.88;98253.51;234209;213;140086;-58
2023/11/17 09:34:10;;;;;;;5.10;2.50;;;;;;;10.36;72.42;98257.52;234191;214;138357;-57
2023/11/17 09:39:15;;;;;;;3.40;2.50;;;;;;;10.31;71.92;98257.41;234210;213;149673;-58
2023/11/17 09:44:19;;;;;;;2.70;2.20;;;;;;;10.24;71.90;98258.44;234258;213;139354;-58
2023/11/17 09:49:28;;;;;;;2.50;2.10;;;;;;;10.16;71.76;98256.98;234226;215;137164;-58
2023/11/17 09:54:33;;;;;;;3.70;2.40;;;;;;;10.16;72.03;98256.98;234180;213;147693;-58
2023/11/17 09:59:42;;;;;;;4.90;2.40;;;;;;;10.21;72.42;98253.15;234260;214;139824;-53
2023/11/17 10:04:45;;;;;;;43.20;28.30;;;;;;;11.07;80.43;98245.73;234181;213;139000;-45
2023/11/17 10:09:49;;;;;;;20.60;13.20;;;;;;;12.54;75.72;98241.59;234234;213;148248;-45
2023/11/17 10:14:53;;;;;;;10.60;7.20;;;;;;;13.23;72.49;98243.20;234150;213;139915;-47
2023/11/17 10:19:58;;;;;;;5.30;3.50;;;;;;;13.53;69.10;98246.87;234295;209;138093;-62
2023/11/17 10:25:02;;;;;;;6.90;3.80;;;;;;;13.00;65.03;98250.67;234309;213;148396;-62
2023/11/17 10:30:07;;;;;;;5.10;3.70;;;;;;;12.23;65.09;98259.95;234611;215;140470;-62
2023/11/17 10:35:16;;;;;;;4.60;3.30;;;;;;;11.64;66.03;98262.64;234447;215;137855;-62
2023/11/17 10:40:31;;;;;;;5.10;3.70;;;;;;;11.21;66.68;98264.99;234331;215;148286;-62
2023/11/17 10:45:47;;;;;;;6.30;3.60;;;;;;;10.88;67.44;98268.23;234292;215;139027;-62
2023/11/17 10:50:52;;;;;;;6.70;3.10;;;;;;;10.62;68.28;98271.59;234211;215;137586;-62
2023/11/17 10:55:57;;;;;;;4.20;3.10;;;;;;;10.48;68.63;98276.33;234161;215;148230;-62
2023/11/17 11:01:03;;;;;;;3.80;2.60;;;;;;;10.42;68.86;98288.65;234356;215;139501;-63
2023/11/17 11:06:08;;;;;;;3.30;2.30;;;;;;;10.33;69.03;98297.30;234357;215;138600;-63
2023/11/17 11:11:20;;;;;;;3.00;2.60;;;;;;;10.28;69.26;98296.95;234381;215;147843;-62
2023/11/17 11:16:24;;;;;;;3.10;2.60;;;;;;;10.14;69.01;98299.53;234384;215;141501;-63
2023/11/17 11:21:33;;;;;;;4.80;3.00;;;;;;;10.14;69.35;98308.22;234401;215;138109;-63
2023/11/17 11:26:38;;;;;;;3.40;2.60;;;;;;;10.12;69.30;98314.50;234346;213;148014;-62
2023/11/17 11:31:41;;;;;;;3.10;2.10;;;;;;;10.03;69.19;98318.23;234397;213;139074;-62
2023/11/17 11:36:47;;;;;;;3.30;2.20;;;;;;;10.06;69.23;98314.81;234336;215;137792;-62
2023/11/17 11:41:51;;;;;;;4.00;2.40;;;;;;;10.00;69.05;98311.50;234421;213;147523;-63
2023/11/17 11:46:57;;;;;;;3.60;2.10;;;;;;;9.96;69.26;98311.80;234222;215;139235;-63
2023/11/17 11:52:13;;;;;;;5.10;2.50;;;;;;;9.93;69.39;98319.63;234285;215;136628;-63
2023/11/17 11:57:27;;;;;;;3.40;2.60;;;;;;;9.86;69.45;98323.35;234415;215;147503;-63
2023/11/17 12:02:33;;;;;;;5.10;2.80;;;;;;;9.75;69.28;98326.39;234217;214;138908;-63
2023/11/17 12:07:37;;;;;;;4.10;3.10;;;;;;;9.75;69.22;98330.50;234389;215;137452;-62
2023/11/17 12:12:41;;;;;;;6.40;3.70;;;;;;;9.81;69.77;98334.49;234274;215;147892;-65
2023/11/17 12:17:53;;;;;;;7.80;4.20;;;;;;;9.86;69.26;98337.31;234334;215;139157;-64
2023/11/17 12:23:05;;;;;;;6.60;4.30;;;;;;;9.84;69.45;98341.18;234310;215;137554;-64
2023/11/17 12:28:09;;;;;;;8.90;4.80;;;;;;;9.83;68.75;98346.23;234364;215;147988;-63
2023/11/17 12:33:14;;;;;;;8.10;5.30;;;;;;;9.76;68.52;98355.58;234309;215;138866;-64
2023/11/17 12:38:17;;;;;;;8.10;5.20;;;;;;;9.64;68.83;98370.92;234329;212;137090;-63
2023/11/17 12:43:21;;;;;;;8.30;5.40;;;;;;;9.61;69.20;98379.77;234288;215;147498;-63
2023/11/17 12:48:24;;;;;;;6.90;4.50;;;;;;;9.58;69.14;98381.58;234296;216;139487;-64
2023/11/17 12:53:42;;;;;;;6.60;4.30;;;;;;;9.52;69.38;98381.13;234448;215;137019;-64
2023/11/17 12:58:54;;;;;;;7.10;4.90;;;;;;;9.52;69.45;98389.81;234483;215;148741;-64
2023/11/17 13:03:59;;;;;;;7.50;5.10;;;;;;;9.57;69.18;98393.70;234200;215;139370;-63
2023/11/17 13:09:09;;;;;;;8.90;6.90;;;;;;;9.62;69.22;98395.65;234377;215;136878;-66
2023/11/17 13:14:24;;;;;;;112.60;69.30;;;;;;;9.63;69.11;98400.58;234157;214;148126;-59
2023/11/17 13:19:29;;;;;;;15.00;9.90;;;;;;;9.67;69.35;98403.64;234202;215;139022;-59
2023/11/17 13:24:32;;;;;;;10.20;7.40;;;;;;;9.61;68.99;98409.86;234161;215;137486;-59
2023/11/17 13:29:40;;;;;;;11.10;7.80;;;;;;;9.57;68.57;98414.46;234405;213;148712;-59
2023/11/17 13:34:53;;;;;;;9.50;6.40;;;;;;;9.43;68.08;98421.92;234128;212;139666;-59
2023/11/17 13:39:58;;;;;;;8.40;6.00;;;;;;;9.29;68.18;98435.62;234268;214;137237;-59
2023/11/17 13:45:03;;;;;;;8.90;5.70;;;;;;;9.23;68.64;98440.58;234238;213;148558;-59
2023/11/17 13:50:14;;;;;;;6.70;4.70;;;;;;;9.21;68.59;98446.24;234095;212;139326;-58
2023/11/17 13:55:19;;;;;;;5.90;4.50;;;;;;;9.24;68.69;98453.80;234161;214;137331;-57
2023/11/17 14:00:26;;;;;;;7.00;4.60;;;;;;;9.27;68.38;98463.38;234207;215;148378;-58
2023/11/17 14:05:29;;;;;;;6.30;5.10;;;;;;;9.28;68.31;98469.13;234289;213;140465;-59
2023/11/17 14:10:33;;;;;;;7.80;4.70;;;;;;;9.23;68.60;98480.63;234299;213;137406;-59
2023/11/17 14:15:36;;;;;;;8.60;5.70;;;;;;;9.18;68.79;98482.52;234164;212;148296;-59
2023/11/17 14:20:55;;;;;;;7.60;4.90;;;;;;;9.14;68.86;98489.85;234271;208;138993;-58
2023/11/17 14:25:58;;;;;;;10.00;6.20;;;;;;;9.06;68.71;98508.08;234227;213;136609;-59
2023/11/17 14:31:08;;;;;;;10.40;6.70;;;;;;;8.85;67.85;98521.10;234188;212;151682;-59
2023/11/17 14:36:11;;;;;;;10.20;6.50;;;;;;;8.56;67.92;98529.64;234207;213;138815;-59
2023/11/17 14:41:16;;;;;;;10.10;6.90;;;;;;;8.42;68.14;98542.16;234261;215;140220;-59
2023/11/17 14:46:23;;;;;;;10.10;6.80;;;;;;;8.33;68.33;98549.61;234103;213;147941;-59
2023/11/17 14:51:29;;;;;;;11.70;7.80;;;;;;;8.21;68.23;98560.35;234231;213;139735;-58
2023/11/17 14:56:34;;;;;;;9.70;7.70;;;;;;;8.07;68.26;98568.27;234170;208;137503;-60
2023/11/17 15:01:42;;;;;;;12.10;8.80;;;;;;;7.94;68.43;98572.59;234223;208;147653;-61
2023/11/17 15:06:54;;;;;;;12.30;8.50;;;;;;;7.78;68.59;98584.26;234140;215;140073;-60
2023/11/17 15:11:57;;;;;;;12.70;8.00;;;;;;;7.65;68.73;98596.13;234264;213;136795;-60
2023/11/17 15:17:00;;;;;;;12.80;8.00;;;;;;;7.53;68.71;98596.31;234114;213;286446;-62
2023/11/17 15:22:05;;;;;;;10.50;7.70;;;;;;;7.44;68.96;98604.80;234327;207;139507;-60
2023/11/17 15:27:08;;;;;;;14.00;7.50;;;;;;;7.33;69.06;98619.85;234510;215;137316;-60
2023/11/17 15:32:11;;;;;;;12.30;8.70;;;;;;;7.33;69.33;98625.31;234440;213;148284;-60
2023/11/17 15:37:14;;;;;;;14.80;8.80;;;;;;;7.32;69.07;98627.85;234427;213;140340;-60
2023/11/17 15:42:18;;;;;;;14.90;8.80;;;;;;;7.35;68.99;98636.88;234506;213;136923;-60
2023/11/17 15:47:21;;;;;;;11.90;8.70;;;;;;;7.36;68.80;98649.52;234590;213;148891;-60
2023/11/17 15:52:24;;;;;;;289.00;162.90;;;;;;;7.37;68.99;98655.83;234409;213;139971;-62
2023/11/17 15:57:27;;;;;;;22.20;13.90;;;;;;;7.32;68.66;98662.26;234416;212;138665;-61
2023/11/17 16:02:31;;;;;;;15.00;9.70;;;;;;;7.12;68.46;98670.25;234450;213;149344;-60
2023/11/17 16:07:35;;;;;;;13.10;9.60;;;;;;;7.05;68.59;98678.36;234390;213;140706;-61
2023/11/17 16:12:38;;;;;;;11.80;8.10;;;;;;;7.06;68.55;98688.58;234501;212;138533;-61
2023/11/17 16:17:42;;;;;;;12.90;8.20;;;;;;;6.92;68.68;98698.30;234657;212;147280;-61
2023/11/17 16:22:46;;;;;;;11.30;7.20;;;;;;;6.82;68.79;98705.69;234436;213;138931;-61
2023/11/17 16:27:51;;;;;;;10.70;7.60;;;;;;;6.80;68.83;98718.66;234516;208;137328;-60
2023/11/17 16:32:55;;;;;;;9.60;7.20;;;;;;;6.73;68.45;98727.31;234413;212;147394;-61
2023/11/17 16:37:59;;;;;;;9.70;6.80;;;;;;;6.58;68.20;98734.40;234463;212;140460;-60
2023/11/17 16:43:10;;;;;;;9.70;6.20;;;;;;;6.51;68.63;98744.31;234394;212;137738;-61
2023/11/17 16:48:14;;;;;;;9.60;6.00;;;;;;;6.42;68.62;98753.56;234392;213;147576;-61
2023/11/17 16:53:19;;;;;;;8.50;6.30;;;;;;;6.38;68.52;98756.73;234472;213;139532;-61
2023/11/17 16:58:23;;;;;;;8.30;6.00;;;;;;;6.29;68.55;98764.08;234330;208;136355;-62
2023/11/17 17:03:26;;;;;;;8.40;5.90;;;;;;;6.27;68.48;98770.16;234407;213;147664;-61
2023/11/17 17:08:31;;;;;;;8.40;5.70;;;;;;;6.28;68.62;98774.67;234378;211;139192;-60
2023/11/17 17:13:35;;;;;;;8.30;5.90;;;;;;;6.20;68.18;98775.07;234443;213;137359;-61
2023/11/17 17:18:39;;;;;;;6.90;5.50;;;;;;;6.21;68.12;98780.48;234568;208;147683;-61
2023/11/17 17:23:42;;;;;;;8.70;5.80;;;;;;;6.27;68.02;98784.60;234570;208;138810;-62
2023/11/17 17:28:46;;;;;;;8.30;5.70;;;;;;;6.31;67.77;98793.90;234325;213;137669;-62
2023/11/17 17:33:49;;;;;;;7.80;5.70;;;;;;;6.32;67.21;98797.73;234432;215;147395;-60
2023/11/17 17:38:52;;;;;;;6.40;5.50;;;;;;;6.18;67.13;98798.26;234439;208;138004;-61
2023/11/17 17:43:55;;;;;;;7.00;5.80;;;;;;;6.14;67.54;98804.08;234442;212;137217;-61
2023/11/17 17:48:59;;;;;;;9.10;6.20;;;;;;;6.11;67.61;98806.52;234434;212;149409;-61
2023/11/17 17:54:05;;;;;;;11.20;6.00;;;;;;;6.11;67.61;98811.77;234596;208;138906;-62
2023/11/17 17:59:08;;;;;;;8.40;6.20;;;;;;;6.06;67.58;98817.15;234564;211;136951;-61
2023/11/17 18:04:11;;;;;;;10.60;5.90;;;;;;;6.04;67.49;98819.52;234338;212;147966;-62
2023/11/17 18:09:15;;;;;;;7.50;5.30;;;;;;;5.99;67.71;98816.42;234331;213;138761;-62
2023/11/17 18:14:18;;;;;;;7.80;5.50;;;;;;;5.96;67.82;98814.96;234505;213;139462;-61
2023/11/17 18:19:22;;;;;;;7.40;5.60;;;;;;;6.03;67.30;98819.77;234432;208;148560;-62
2023/11/17 18:24:25;;;;;;;8.30;5.70;;;;;;;6.10;67.33;98824.16;234405;213;139022;-63
2023/11/17 18:29:28;;;;;;;7.90;5.60;;;;;;;6.12;67.16;98832.50;234601;211;136586;-63
2023/11/17 18:34:31;;;;;;;7.70;5.50;;;;;;;6.19;66.82;98834.51;234437;213;149037;-62
2023/11/17 18:39:36;;;;;;;259.80;178.90;;;;;;;6.25;67.01;98838.23;234511;212;138936;-62
2023/11/17 18:44:40;;;;;;;11.90;8.70;;;;;;;6.36;67.03;98834.71;234396;213;137145;-62
2023/11/17 18:49:44;;;;;;;10.10;7.10;;;;;;;6.30;66.76;98837.13;234431;213;148033;-61
2023/11/17 18:54:48;;;;;;;10.30;6.50;;;;;;;6.21;66.84;98842.52;234377;212;140993;-62
2023/11/17 18:59:52;;;;;;;9.10;6.10;;;;;;;6.20;67.19;98850.29;234634;213;137773;-62
2023/11/17 19:04:55;;;;;;;8.10;5.20;;;;;;;6.09;67.61;98859.06;234424;212;149435;-62
2023/11/17 19:09:58;;;;;;;9.00;5.70;;;;;;;6.04;67.79;98864.06;234318;213;138921;-62
2023/11/17 19:15:06;;;;;;;8.10;6.00;;;;;;;6.04;67.95;98862.32;234594;212;137593;-63
2023/11/17 19:20:15;;;;;;;8.30;5.90;;;;;;;6.10;68.01;98866.10;234415;213;148001;-62
2023/11/17 19:25:18;;;;;;;10.80;7.90;;;;;;;6.11;68.67;98872.02;234488;213;139397;-62
2023/11/17 19:30:21;;;;;;;8.70;5.90;;;;;;;6.19;68.16;98871.31;234449;212;138041;-62
2023/11/17 19:35:24;;;;;;;55.10;39.70;;;;;;;6.14;67.95;98871.17;234491;213;148865;-61
2023/11/17 19:40:27;;;;;;;15.70;12.30;;;;;;;6.21;68.89;98870.34;234429;213;139549;-61
2023/11/17 19:45:31;;;;;;;9.30;6.90;;;;;;;6.18;68.02;98873.97;234453;213;137120;-61
2023/11/17 19:50:34;;;;;;;8.70;6.90;;;;;;;6.13;68.10;98878.63;234343;208;147476;-62
2023/11/17 19:55:37;;;;;;;7.20;5.30;;;;;;;6.06;68.08;98877.54;234475;213;138838;-61
2023/11/17 20:00:41;;;;;;;5.80;4.90;;;;;;;5.94;68.18;98876.86;234500;212;137441;-62
2023/11/17 20:05:46;;;;;;;162.50;120.80;;;;;;;5.93;68.42;98878.13;234534;208;148457;-64
2023/11/17 20:10:49;;;;;;;83.40;41.80;;;;;;;6.09;69.02;98883.75;234539;207;141517;-64
2023/11/17 20:15:52;;;;;;;5.90;4.80;;;;;;;6.27;68.09;98884.98;234381;212;137826;-64
2023/11/17 20:20:59;;;;;;;5.90;4.70;;;;;;;6.27;67.37;98893.81;234516;213;147563;-63
2023/11/17 20:26:07;;;;;;;6.50;4.20;;;;;;;6.16;67.20;98895.40;234520;215;138889;-64
2023/11/17 20:31:13;;;;;;;6.00;4.20;;;;;;;6.04;66.84;98890.64;234466;213;136905;-63
2023/11/17 20:36:20;;;;;;;4.90;4.00;;;;;;;5.96;67.27;98893.49;234451;215;147646;-62
2023/11/17 20:41:24;;;;;;;4.80;4.20;;;;;;;5.93;67.13;98895.20;234527;213;138911;-64
2023/11/17 20:46:27;;;;;;;5.30;3.80;;;;;;;5.90;67.14;98897.06;234419;215;136771;-64
2023/11/17 20:51:31;;;;;;;7.10;4.10;;;;;;;5.90;67.18;98908.17;234466;215;148917;-63
2023/11/17 20:56:35;;;;;;;4.60;4.00;;;;;;;5.89;67.17;98912.43;234471;213;139889;-64
2023/11/17 21:01:46;;;;;;;5.20;3.30;;;;;;;5.86;67.12;98917.66;234444;213;136692;-64
2023/11/17 21:06:50;;;;;;;4.20;3.50;;;;;;;5.91;67.08;98924.67;234394;213;148122;-65
2023/11/17 21:11:54;;;;;;;5.40;3.70;;;;;;;6.10;67.19;98933.71;234603;212;139699;-66
2023/11/17 21:16:58;;;;;;;4.90;3.60;;;;;;;6.23;66.81;98933.46;234526;213;136601;-63
2023/11/17 21:22:01;;;;;;;6.30;4.10;;;;;;;6.28;66.26;98936.05;234647;207;149335;-65
2023/11/17 21:27:06;;;;;;;4.30;3.30;;;;;;;6.28;66.17;98941.52;234732;214;139630;-66
2023/11/17 21:32:11;;;;;;;4.80;3.60;;;;;;;6.32;66.25;98946.27;234689;213;137651;-65
2023/11/17 21:37:14;;;;;;;5.80;4.00;;;;;;;6.32;65.95;98942.17;234555;214;148760;-65
2023/11/17 21:42:17;;;;;;;5.00;3.90;;;;;;;6.33;65.78;98944.09;234629;212;138958;-65
2023/11/17 21:47:21;;;;;;;5.30;3.70;;;;;;;6.28;65.88;98949.98;234863;214;136420;-65
2023/11/17 21:52:24;;;;;;;4.40;3.60;;;;;;;6.30;65.78;98958.15;234718;214;147904;-65
2023/11/17 21:57:27;;;;;;;3.90;3.10;;;;;;;6.29;65.68;98964.91;234680;213;138816;-65
2023/11/17 22:02:30;;;;;;;5.30;2.90;;;;;;;6.21;65.70;98969.67;234544;214;137351;-63
2023/11/17 22:07:33;;;;;;;4.50;2.80;;;;;;;6.18;65.65;98976.68;234497;215;147762;-62
2023/11/17 22:12:41;;;;;;;3.90;2.80;;;;;;;6.12;65.67;98982.73;234413;215;139769;-64
2023/11/17 22:17:45;;;;;;;3.50;2.60;;;;;;;6.10;65.71;98987.09;234608;213;139280;-63
2023/11/17 22:22:49;;;;;;;4.30;2.50;;;;;;;6.16;65.93;98987.17;234366;215;147656;-64
2023/11/17 22:27:55;;;;;;;3.30;2.80;;;;;;;6.27;65.81;98996.17;234489;215;139549;-65
2023/11/17 22:32:58;;;;;;;6.00;3.50;;;;;;;6.35;65.65;98997.40;234369;213;136476;-65
2023/11/17 22:38:01;;;;;;;4.70;3.00;;;;;;;6.34;65.64;98998.31;234296;212;148228;-65
2023/11/17 22:43:05;;;;;;;5.10;3.30;;;;;;;6.31;65.92;99001.45;234464;215;138918;-64
2023/11/17 22:48:08;;;;;;;5.70;2.90;;;;;;;6.33;65.96;99002.96;234657;213;137695;-64
2023/11/17 22:53:11;;;;;;;4.80;3.30;;;;;;;6.30;65.91;98997.64;234570;215;147769;-64
2023/11/17 22:58:14;;;;;;;4.60;3.30;;;;;;;6.30;66.01;98994.63;234421;215;139052;-64
2023/11/17 23:03:18;;;;;;;4.10;3.20;;;;;;;6.32;65.91;98995.77;234366;213;136431;-64
2023/11/17 23:08:21;;;;;;;4.60;3.10;;;;;;;6.31;65.94;98996.70;234341;215;148846;-64
2023/11/17 23:13:25;;;;;;;3.80;2.90;;;;;;;6.31;66.13;98993.90;234389;215;144097;-64
2023/11/17 23:18:28;;;;;;;4.00;3.40;;;;;;;6.31;66.06;98992.30;234499;215;137535;-63
2023/11/17 23:23:32;;;;;;;4.20;3.00;;;;;;;6.30;66.30;98995.17;234493;212;147807;-62
2023/11/17 23:28:35;;;;;;;6.00;3.30;;;;;;;6.31;66.54;98997.92;234383;213;139479;-64
2023/11/17 23:33:38;;;;;;;4.30;3.00;;;;;;;6.29;66.77;98994.68;234345;208;137439;-66
2023/11/17 23:38:41;;;;;;;7.70;4.10;;;;;;;6.27;67.24;98990.68;234284;216;147723;-65
2023/11/17 23:43:46;;;;;;;4.40;3.30;;;;;;;6.28;67.46;98992.95;234316;215;139613;-64
2023/11/17 23:48:49;;;;;;;5.30;3.70;;;;;;;6.26;67.59;98994.98;234390;215;137735;-64